createdAt,value
2019-05-10T00:00:10.346Z,71.54
2019-05-10T00:02:57.738Z,71.72
2019-05-10T00:05:45.427Z,71.78
2019-05-10T00:08:32.674Z,71.79
2019-05-10T00:13:57.694Z,71.51
2019-05-10T00:16:26.765Z,71.51
2019-05-10T00:18:55.426Z,71.79
2019-05-10T00:21:24.087Z,71.72
2019-05-10T00:23:52.849Z,72.04
2019-05-10T00:26:21.570Z,72.17
2019-05-10T00:28:50.357Z,72.42
2019-05-10T00:31:19.130Z,72.36
2019-05-10T00:33:47.809Z,72.25
2019-05-10T00:36:16.475Z,72.11
2019-05-10T00:38:45.286Z,72.16
2019-05-10T00:41:13.953Z,72.28
2019-05-10T00:43:42.708Z,72.33
2019-05-10T00:46:11.383Z,72.34
2019-05-10T00:48:40.163Z,72.23
2019-05-10T00:51:08.902Z,72.31
2019-05-10T00:53:37.591Z,72.55
2019-05-10T00:56:06.276Z,72.57
2019-05-10T00:58:34.965Z,72.38
2019-05-10T01:01:03.609Z,72.08
2019-05-10T01:03:32.373Z,72.23
2019-05-10T01:06:01.097Z,72.06
2019-05-10T01:08:29.784Z,71.85
2019-05-10T01:10:58.439Z,71.91
2019-05-10T01:13:27.131Z,71.95
2019-05-10T01:15:55.816Z,72.04
2019-05-10T01:18:24.512Z,72.37
2019-05-10T01:20:53.170Z,72.39
2019-05-10T01:23:21.852Z,72.60
2019-05-10T01:25:50.515Z,72.68
2019-05-10T01:28:19.194Z,72.76
2019-05-10T01:30:47.928Z,72.17
2019-05-10T01:33:16.618Z,71.53
2019-05-10T01:35:45.330Z,71.14
2019-05-10T01:38:14.026Z,71.20
2019-05-10T01:40:42.685Z,71.18
2019-05-10T01:43:11.472Z,71.06
2019-05-10T01:45:40.241Z,71.06
2019-05-10T01:48:08.932Z,71.38
2019-05-10T01:50:37.592Z,71.49
2019-05-10T01:53:06.358Z,71.54
2019-05-10T01:55:50.444Z,71.61
2019-05-10T01:58:05.482Z,71.41
2019-05-10T02:00:34.226Z,71.53
2019-05-10T02:03:02.938Z,71.30
2019-05-10T02:05:31.585Z,71.22
2019-05-10T02:08:00.264Z,71.18
2019-05-10T02:10:29.618Z,71.23
2019-05-10T02:12:58.303Z,71.45
2019-05-10T02:15:27.028Z,71.59
2019-05-10T02:17:55.715Z,71.44
2019-05-10T02:20:24.362Z,71.63
2019-05-10T02:22:53.026Z,71.43
2019-05-10T02:25:21.837Z,71.33
2019-05-10T02:27:50.490Z,71.26
2019-05-10T02:30:19.391Z,71.18
2019-05-10T02:32:48.047Z,71.23
2019-05-10T02:35:16.862Z,71.30
2019-05-10T02:37:45.518Z,71.37
2019-05-10T02:40:15.156Z,71.28
2019-05-10T02:42:43.802Z,71.57
2019-05-10T02:45:12.812Z,71.54
2019-05-10T02:47:41.458Z,71.47
2019-05-10T02:50:11.264Z,71.60
2019-05-10T02:52:39.936Z,71.50
2019-05-10T02:55:08.770Z,71.57
2019-05-10T02:57:38.286Z,71.99
2019-05-10T03:00:07.893Z,72.34
2019-05-10T03:02:36.991Z,72.60
2019-05-10T03:05:07.733Z,72.70
2019-05-10T03:07:38.338Z,73.15
2019-05-10T03:10:11.438Z,73.56
2019-05-10T03:12:41.900Z,73.45
2019-05-10T03:15:12.442Z,73.22
2019-05-10T03:17:42.069Z,73.06
2019-05-10T03:20:12.602Z,72.85
2019-05-10T03:22:43.344Z,72.75
2019-05-10T03:25:14.375Z,72.59
2019-05-10T03:27:43.289Z,72.69
2019-05-10T03:30:12.336Z,73.15
2019-05-10T03:32:41.096Z,73.26
2019-05-10T03:35:11.089Z,73.27
2019-05-10T03:37:39.957Z,73.33
2019-05-10T03:40:09.382Z,73.45
2019-05-10T03:42:38.119Z,73.67
2019-05-10T03:45:10.151Z,73.80
2019-05-10T03:47:38.810Z,74.04
2019-05-10T03:50:09.212Z,74.03
2019-05-10T03:52:37.895Z,73.95
2019-05-10T03:55:06.978Z,73.82
2019-05-10T03:57:35.724Z,73.74
2019-05-10T04:00:07.368Z,73.78
2019-05-10T04:02:36.093Z,73.84
2019-05-10T04:05:06.787Z,73.96
2019-05-10T04:07:35.449Z,74.32
2019-05-10T04:10:06.158Z,74.44
2019-05-10T04:12:34.901Z,74.78
2019-05-10T04:15:04.731Z,74.93
2019-05-10T04:17:33.386Z,74.95
2019-05-10T04:20:02.121Z,74.93
2019-05-10T04:22:30.769Z,75.14
2019-05-10T04:24:59.469Z,74.76
2019-05-10T04:27:32.060Z,74.50
2019-05-10T04:29:58.550Z,74.37
2019-05-10T04:32:27.555Z,74.45
2019-05-10T04:34:56.287Z,74.52
2019-05-10T04:37:25.043Z,74.68
2019-05-10T04:39:53.747Z,74.82
2019-05-10T04:42:22.391Z,75.01
2019-05-10T04:44:53.503Z,75.27
2019-05-10T04:47:21.462Z,75.44
2019-05-10T04:49:50.125Z,75.32
2019-05-10T04:52:18.818Z,75.37
2019-05-10T04:54:47.485Z,75.58
2019-05-10T04:57:16.185Z,75.28
2019-05-10T04:59:44.919Z,75.24
2019-05-10T05:02:13.710Z,75.24
2019-05-10T05:04:42.364Z,75.26
2019-05-10T05:07:11.035Z,75.37
2019-05-10T05:09:39.708Z,75.68
2019-05-10T05:12:08.404Z,75.86
2019-05-10T05:14:37.069Z,76.08
2019-05-10T05:17:05.759Z,76.07
2019-05-10T05:19:34.433Z,76.25
2019-05-10T05:22:03.166Z,76.49
2019-05-10T05:24:31.877Z,76.80
2019-05-10T05:27:00.619Z,76.93
2019-05-10T05:29:29.304Z,77.08
2019-05-10T05:32:00.950Z,77.11
2019-05-10T05:34:28.502Z,77.16
2019-05-10T05:36:57.197Z,77.14
2019-05-10T05:39:25.944Z,77.32
2019-05-10T05:41:56.538Z,77.47
2019-05-10T05:44:26.006Z,77.49
2019-05-10T05:46:55.630Z,77.59
2019-05-10T05:49:24.368Z,77.96
2019-05-10T05:51:53.056Z,77.92
2019-05-10T05:54:22.693Z,78.23
2019-05-10T05:56:53.073Z,78.21
2019-05-10T05:59:23.644Z,78.15
2019-05-10T06:01:52.450Z,78.20
2019-05-10T06:04:21.133Z,78.17
2019-05-10T06:06:53.813Z,78.21
2019-05-10T06:09:20.309Z,77.67
2019-05-10T06:11:49.093Z,77.40
2019-05-10T06:14:17.762Z,77.74
2019-05-10T06:16:51.230Z,77.61
2019-05-10T06:19:20.532Z,77.38
2019-05-10T06:21:47.321Z,77.42
2019-05-10T06:24:16.080Z,77.40
2019-05-10T06:26:44.752Z,77.42
2019-05-10T06:29:17.225Z,76.99
2019-05-10T06:31:43.994Z,76.89
2019-05-10T06:34:12.755Z,76.96
2019-05-10T06:36:41.448Z,76.88
2019-05-10T06:39:10.137Z,76.39
2019-05-10T06:41:38.913Z,76.26
2019-05-10T06:44:07.584Z,76.08
2019-05-10T06:46:36.279Z,76.18
2019-05-10T06:49:08.365Z,76.44
2019-05-10T06:51:35.506Z,76.18
2019-05-10T06:54:04.353Z,76.33
2019-05-10T06:56:33.017Z,75.85
2019-05-10T06:59:13.098Z,76.04
2019-05-10T07:01:32.127Z,76.15
2019-05-10T07:04:00.839Z,75.95
2019-05-10T07:06:29.573Z,75.88
2019-05-10T07:08:59.537Z,76.27
2019-05-10T07:11:28.326Z,76.15
2019-05-10T07:13:57.027Z,75.65
2019-05-10T07:16:26.134Z,75.72
2019-05-10T07:19:00.530Z,75.83
2019-05-10T07:21:25.466Z,75.63
2019-05-10T07:23:54.158Z,75.92
2019-05-10T07:26:26.340Z,76.25
2019-05-10T07:28:57.513Z,76.37
2019-05-10T07:31:24.016Z,76.46
2019-05-10T07:33:53.047Z,76.44
2019-05-10T07:36:27.458Z,76.59
2019-05-10T07:38:52.120Z,76.65
2019-05-10T07:41:26.570Z,76.30
2019-05-10T07:43:51.219Z,76.07
2019-05-10T07:46:19.898Z,76.29
2019-05-10T07:48:53.506Z,76.03
2019-05-10T07:51:22.863Z,76.24
2019-05-10T07:53:49.700Z,76.09
2019-05-10T07:56:18.409Z,76.38
2019-05-10T07:58:47.187Z,76.26
2019-05-10T08:01:15.892Z,76.54
2019-05-10T08:03:52.122Z,76.72
2019-05-10T08:06:19.225Z,77.20
2019-05-10T08:08:49.490Z,77.25
2019-05-10T08:11:19.126Z,77.20
2019-05-10T08:13:48.647Z,77.60
2019-05-10T08:16:22.706Z,77.69
2019-05-10T08:18:49.796Z,77.83
2019-05-10T08:21:23.845Z,77.95
2019-05-10T08:23:51.928Z,77.80
2019-05-10T08:26:24.220Z,77.84
2019-05-10T08:28:52.417Z,77.90
2019-05-10T08:31:22.190Z,77.86
2019-05-10T08:33:57.183Z,78.21
2019-05-10T08:36:21.959Z,78.11
2019-05-10T08:39:03.055Z,77.02
2019-05-10T08:41:22.787Z,76.44
2019-05-10T08:43:53.141Z,76.21
2019-05-10T08:46:28.594Z,74.75
2019-05-10T08:48:53.886Z,74.32
2019-05-10T08:51:22.934Z,73.40
2019-05-10T08:53:53.582Z,73.27
2019-05-10T08:56:24.118Z,72.73
2019-05-10T08:58:53.620Z,72.77
2019-05-10T09:01:29.523Z,72.70
2019-05-10T09:03:59.155Z,72.51
2019-05-10T09:06:23.558Z,72.21
2019-05-10T09:09:01.363Z,72.33
2019-05-10T09:11:23.218Z,72.05
2019-05-10T09:13:53.374Z,72.25
2019-05-10T09:16:23.679Z,72.12
2019-05-10T09:18:53.523Z,71.82
2019-05-10T09:21:22.515Z,72.11
2019-05-10T09:24:01.222Z,72.28
2019-05-10T09:26:22.716Z,72.24
2019-05-10T09:28:53.467Z,72.43
2019-05-10T09:31:25.483Z,72.29
2019-05-10T09:33:54.314Z,72.54
2019-05-10T09:36:30.756Z,72.73
2019-05-10T09:38:53.223Z,72.60
2019-05-10T09:41:22.628Z,72.86
2019-05-10T09:43:53.591Z,72.25
2019-05-10T09:46:22.870Z,72.22
2019-05-10T09:48:54.481Z,72.21
2019-05-10T09:51:30.181Z,72.14
2019-05-10T09:53:52.545Z,71.70
2019-05-10T09:56:22.728Z,70.82
2019-05-10T09:58:53.767Z,71.16
2019-05-10T10:01:22.554Z,71.67
2019-05-10T10:03:51.302Z,71.82
2019-05-10T10:06:23.833Z,71.88
2019-05-10T10:08:53.537Z,71.99
2019-05-10T10:11:22.399Z,72.00
2019-05-10T10:13:58.981Z,72.40
2019-05-10T10:16:21.519Z,72.92
2019-05-10T10:18:50.182Z,73.21
2019-05-10T10:21:30.818Z,73.62
2019-05-10T10:23:49.408Z,73.83
2019-05-10T10:26:22.197Z,73.60
2019-05-10T10:28:49.577Z,73.56
2019-05-10T10:31:27.071Z,73.75
2019-05-10T10:33:58.227Z,73.99
2019-05-10T10:36:20.227Z,73.82
2019-05-10T10:38:49.785Z,73.71
2019-05-10T10:41:25.863Z,73.06
2019-05-10T10:43:49.305Z,72.64
2019-05-10T10:46:19.892Z,72.23
2019-05-10T10:48:51.049Z,71.98
2019-05-10T10:51:18.957Z,72.13
2019-05-10T10:53:47.621Z,71.33
2019-05-10T10:56:17.611Z,71.79
2019-05-10T10:58:49.612Z,71.40
2019-05-10T11:01:21.520Z,71.43
2019-05-10T11:03:49.088Z,71.59
2019-05-10T11:06:17.678Z,71.18
2019-05-10T11:08:46.364Z,71.00
2019-05-10T11:11:15.093Z,71.10
2019-05-10T11:13:45.800Z,71.34
2019-05-10T11:16:15.525Z,71.33
2019-05-10T11:18:44.611Z,71.13
2019-05-10T11:21:13.323Z,71.27
2019-05-10T11:23:42.235Z,71.18
2019-05-10T11:26:11.037Z,70.69
2019-05-10T11:28:43.919Z,70.57
2019-05-10T11:31:11.411Z,70.23
2019-05-10T11:33:41.450Z,70.03
2019-05-10T11:36:11.415Z,69.73
2019-05-10T11:38:42.015Z,69.21
2019-05-10T11:41:13.590Z,69.56
2019-05-10T11:43:42.032Z,69.88
2019-05-10T11:46:11.727Z,70.04
2019-05-10T11:48:42.161Z,70.12
2019-05-10T11:51:17.180Z,70.44
2019-05-10T11:53:41.726Z,70.31
2019-05-10T12:01:17.544Z,69.76
2019-05-10T12:03:42.543Z,68.83
2019-05-10T12:06:12.108Z,68.66
2019-05-10T12:08:41.836Z,67.63
2019-05-10T12:13:41.356Z,67.62
2019-05-10T12:16:16.103Z,67.33
2019-05-10T12:21:11.407Z,66.25
2019-05-10T12:23:49.995Z,66.03
2019-05-10T12:26:16.068Z,67.21
2019-05-10T12:26:18.268Z,67.11
2019-05-10T12:26:18.978Z,69.53
2019-05-10T12:26:27.159Z,69.76
2019-05-10T12:28:41.037Z,65.16
2019-05-10T12:31:15.179Z,65.35
2019-05-10T12:33:44.537Z,64.30
2019-05-10T12:36:22.388Z,63.67
2019-05-10T12:38:40.982Z,64.23
2019-05-10T12:41:09.652Z,64.54
2019-05-10T12:43:43.150Z,63.76
2019-05-10T12:46:10.503Z,63.80
2019-05-10T12:48:39.155Z,64.25
2019-05-10T12:51:11.813Z,63.91
2019-05-10T12:53:44.416Z,64.19
2019-05-10T12:56:08.596Z,64.40
2019-05-10T12:58:37.393Z,64.17
2019-05-10T13:01:06.066Z,63.79
2019-05-10T13:03:34.743Z,64.33
2019-05-10T13:06:03.459Z,64.88
2019-05-10T13:08:32.184Z,64.13
2019-05-10T13:11:00.832Z,63.42
2019-05-10T13:13:30.151Z,63.45
2019-05-10T13:16:03.648Z,63.78
2019-05-10T13:21:00.977Z,63.51
2019-05-10T13:23:29.680Z,63.16
2019-05-10T13:26:23.793Z,62.61
2019-05-10T13:28:52.444Z,62.88
2019-05-10T13:31:21.326Z,63.17
2019-05-10T13:33:50.015Z,63.28
2019-05-10T13:36:18.712Z,63.08
2019-05-10T13:38:49.210Z,62.11
2019-05-10T13:41:23.724Z,61.76
2019-05-10T13:43:48.407Z,62.54
2019-05-10T13:46:17.156Z,62.76
2019-05-10T13:48:45.866Z,63.38
2019-05-10T13:51:14.594Z,62.93
2019-05-10T13:53:43.241Z,62.04
2019-05-10T13:56:11.951Z,60.80
2019-05-10T13:58:40.648Z,61.11
2019-05-10T14:01:13.185Z,60.74
2019-05-10T14:03:44.293Z,61.74
2019-05-10T14:06:10.420Z,61.17
2019-05-10T14:08:42.785Z,61.01
2019-05-10T14:11:09.512Z,60.29
2019-05-10T14:13:41.667Z,59.71
2019-05-10T14:16:18.611Z,60.13
2019-05-10T14:18:39.341Z,59.24
2019-05-10T14:21:08.121Z,59.58
2019-05-10T14:23:37.406Z,58.54
2019-05-10T14:26:09.145Z,58.76
2019-05-10T14:28:36.595Z,58.89
2019-05-10T14:31:05.401Z,58.52
2019-05-10T14:33:34.127Z,58.59
2019-05-10T14:36:03.400Z,57.65
2019-05-10T14:38:32.254Z,57.84
2019-05-10T14:41:04.042Z,57.39
2019-05-10T14:43:31.355Z,57.22
2019-05-10T14:46:00.092Z,56.69
2019-05-10T14:48:30.731Z,56.97
2019-05-10T14:51:03.319Z,56.82
2019-05-10T14:53:29.733Z,56.81
2019-05-10T14:55:58.529Z,53.84
2019-05-10T14:58:27.287Z,54.14
2019-05-10T15:00:55.961Z,54.80
2019-05-10T15:03:24.721Z,55.03
2019-05-10T15:05:55.649Z,54.28
2019-05-10T15:08:24.016Z,54.55
